Time;durP1;ratioP1;P1;durP2;ratioP2;P2;SDS_P1;SDS_P2;PMS_P1;PMS_P2;Temp;Humidity;BMP_temperature;BMP_pressure;BME280_temperature;BME280_humidity;BME280_pressure;Samples;Min_cycle;Max_cycle;Signal;HPM_P1;HPM_P2
2022/07/07 07:59:02;;;;;;;4.50;1.73;;;;;;;17.56;74.49;102058.13;5279893;28;20732;-67
2022/07/07 08:01:33;;;;;;;6.40;2.38;;;;;;;17.41;78.25;102072.44;5280022;28;20043;-67
2022/07/07 08:04:05;;;;;;;4.15;2.13;;;;;;;16.97;82.76;102085.72;5279479;28;20040;-67
2022/07/07 08:06:36;;;;;;;6.55;1.67;;;;;;;16.84;83.90;102069.69;5276562;28;20029;-67
2022/07/07 08:09:08;;;;;;;3.88;1.10;;;;;;;16.76;82.43;102067.53;5258912;28;20033;-67
2022/07/07 08:11:39;;;;;;;3.28;1.70;;;;;;;16.80;83.13;102063.88;5259438;28;20021;-67
2022/07/07 08:14:10;;;;;;;3.58;1.33;;;;;;;16.84;82.54;102073.31;5258806;28;20108;-67
2022/07/07 08:16:41;;;;;;;6.35;1.58;;;;;;;17.00;83.56;102073.09;5258443;28;20033;-67
2022/07/07 08:19:17;;;;;;;3.20;1.10;;;;;;;17.07;81.45;102079.16;5258985;28;20108;-67
2022/07/07 08:21:48;;;;;;;2.78;1.10;;;;;;;17.22;82.31;102081.72;5259190;28;20492;-68
2022/07/07 08:24:20;;;;;;;6.90;1.95;;;;;;;17.30;80.94;102078.22;5266603;28;20032;-67
2022/07/07 08:26:52;;;;;;;3.72;1.58;;;;;;;17.33;80.49;102077.63;5279689;28;20078;-67
2022/07/07 08:29:23;;;;;;;77.45;67.88;;;;;;;17.41;79.80;102078.03;5279833;28;20501;-67
2022/07/07 08:31:54;;;;;;;5.82;2.05;;;;;;;17.43;79.42;102081.38;5278520;28;20078;-67
2022/07/07 08:34:26;;;;;;;4.45;2.13;;;;;;;17.51;79.63;102089.09;5279068;28;20025;-67
2022/07/07 08:36:57;;;;;;;6.40;3.45;;;;;;;17.62;78.52;102084.16;5279016;28;20027;-70
2022/07/07 08:39:29;;;;;;;6.03;1.88;;;;;;;17.49;77.70;102086.59;5257722;28;20044;-70
2022/07/07 08:42:00;;;;;;;6.97;1.50;;;;;;;17.54;79.46;102094.94;5264801;28;20362;-72
2022/07/07 08:44:32;;;;;;;3.35;1.40;;;;;;;17.50;81.23;102098.66;5257665;28;20029;-69
2022/07/07 08:47:04;;;;;;;5.90;1.73;;;;;;;17.42;81.12;102102.97;5258399;28;20025;-69
2022/07/07 08:49:35;;;;;;;6.93;4.05;;;;;;;17.34;80.68;102093.28;5277193;28;20040;-70
2022/07/07 08:52:07;;;;;;;5.38;1.52;;;;;;;17.43;80.59;102099.03;5278486;28;20021;-69
2022/07/07 08:54:39;;;;;;;7.97;2.08;;;;;;;17.66;79.53;102102.84;5262267;28;20029;-67
2022/07/07 08:57:11;;;;;;;5.78;1.50;;;;;;;18.00;78.37;102090.50;5258449;28;20045;-67
2022/07/07 08:59:42;;;;;;;4.70;1.70;;;;;;;17.97;77.58;102091.09;5276109;28;20028;-65
2022/07/07 09:02:13;;;;;;;6.03;2.30;;;;;;;18.18;77.21;102103.59;5278434;28;20087;-65
2022/07/07 09:04:45;;;;;;;5.50;1.70;;;;;;;18.04;75.40;102114.81;5278272;28;20031;-65
2022/07/07 09:07:17;;;;;;;26.63;23.83;;;;;;;17.91;76.50;102115.63;5278134;28;20021;-66
2022/07/07 09:09:49;;;;;;;5.88;2.20;;;;;;;17.80;76.50;102114.97;5268180;28;20029;-67
2022/07/07 09:12:20;;;;;;;5.03;1.80;;;;;;;17.55;78.34;102126.59;5249828;28;20025;-67
2022/07/07 09:14:53;;;;;;;7.38;1.92;;;;;;;17.64;80.96;102115.50;5247725;28;20112;-68
2022/07/07 09:17:27;;;;;;;6.63;1.90;;;;;;;17.53;81.28;102126.06;5264808;28;20071;-68
2022/07/07 09:20:08;;;;;;;6.15;3.05;;;;;;;17.60;80.97;102127.34;5264053;28;20025;-67
2022/07/07 09:22:52;;;;;;;7.30;3.95;;;;;;;17.73;80.31;102124.91;5245556;28;20033;-67
2022/07/07 09:25:26;;;;;;;4.80;2.40;;;;;;;17.85;80.06;102130.06;5243863;28;20025;-67
2022/07/07 09:28:03;;;;;;;16.17;12.80;;;;;;;17.88;77.16;102132.25;5243140;28;20029;-68
2022/07/07 09:30:37;;;;;;;5.43;2.05;;;;;;;17.97;75.30;102130.38;5244025;28;20460;-69
2022/07/07 09:33:19;;;;;;;4.53;2.35;;;;;;;18.11;76.74;102134.06;5248836;28;20041;-68
2022/07/07 09:38:44;;;;;;;6.63;2.30;;;;;;;18.21;73.80;102147.91;5243200;28;20038;-69
2022/07/07 09:41:18;;;;;;;5.75;2.00;;;;;;;18.17;73.38;102146.00;5242548;28;20034;-68
2022/07/07 09:43:52;;;;;;;4.73;1.77;;;;;;;18.24;74.22;102146.44;5243516;28;20045;-69
2022/07/07 09:46:25;;;;;;;7.90;1.55;;;;;;;18.22;72.80;102145.91;5243824;28;20039;-68
2022/07/07 09:49:00;;;;;;;5.65;1.55;;;;;;;18.32;72.94;102147.69;5249343;28;20453;-69
2022/07/07 09:51:32;;;;;;;;;;;;;;;18.45;72.64;102163.72;5263912;28;20079;-67
2022/07/07 09:54:12;;;;;;;2.47;1.33;;;;;;;18.23;72.45;102165.28;5252007;28;20271;-75
2022/07/07 09:56:46;;;;;;;3.20;1.08;;;;;;;18.13;72.76;102185.13;5242837;28;20053;-74
2022/07/07 09:59:22;;;;;;;3.83;1.17;;;;;;;18.03;73.65;102186.13;5243378;28;20026;-74
2022/07/07 10:01:53;;;;;;;;;;;;;;;18.10;74.49;102191.34;5242929;28;20052;-74
2022/07/07 10:04:27;;;;;;;3.78;1.92;;;;;;;17.83;76.81;102200.50;5243126;28;19920;-74
2022/07/07 10:06:59;;;;;;;5.40;1.50;;;;;;;17.57;78.80;102211.28;5256812;28;20522;-74
2022/07/07 10:09:31;;;;;;;4.45;2.00;;;;;;;17.48;79.92;102207.50;5260199;28;20464;-73
2022/07/07 10:12:03;;;;;;;4.07;1.40;;;;;;;17.50;82.20;102194.00;5251275;28;20014;-73
2022/07/07 10:14:35;;;;;;;4.35;1.48;;;;;;;17.53;82.00;102207.41;5243318;28;20022;-74
2022/07/07 10:17:07;;;;;;;2.92;1.33;;;;;;;17.67;81.69;102210.31;5242569;28;20026;-72
2022/07/07 10:19:38;;;;;;;3.25;1.33;;;;;;;17.56;80.49;102210.47;5242934;28;20040;-73
2022/07/07 10:22:13;;;;;;;3.70;1.58;;;;;;;17.79;80.39;102214.34;5242773;28;20026;-73
2022/07/07 10:24:45;;;;;;;3.40;1.27;;;;;;;17.47;80.46;102211.44;5262055;28;20388;-75
2022/07/07 10:27:21;;;;;;;2.45;1.88;;;;;;;17.59;80.17;102220.25;5253042;28;20028;-75
2022/07/07 10:30:00;;;;;;;3.78;1.40;;;;;;;17.66;80.08;102220.66;5262893;28;20122;-73
2022/07/07 10:32:50;;;;;;;13.45;10.52;;;;;;;17.79;79.88;102224.66;5263754;28;20029;-75
2022/07/07 10:35:23;;;;;;;10.68;7.97;;;;;;;17.64;80.03;102228.56;5262997;28;20035;-72
2022/07/07 10:37:56;;;;;;;7.18;2.15;;;;;;;17.87;80.22;102234.41;5262320;28;20495;-73
2022/07/07 10:40:29;;;;;;;13.85;10.50;;;;;;;17.74;79.73;102233.16;5252834;28;20030;-77
2022/07/07 10:43:42;;;;;;;12.55;8.70;;;;;;;17.92;79.65;102245.53;5243415;28;20025;-74
2022/07/07 10:46:13;;;;;;;3.25;1.23;;;;;;;18.04;77.62;102238.31;5234722;28;20142;-75
2022/07/07 10:48:52;;;;;;;5.18;2.47;;;;;;;18.17;76.53;102231.06;5242386;28;20029;-75
2022/07/07 10:51:25;;;;;;;11.95;10.82;;;;;;;18.25;76.03;102237.94;5241960;28;20199;-76
2022/07/07 10:54:03;;;;;;;7.32;5.65;;;;;;;18.20;75.39;102246.47;5252829;28;20108;-73
2022/07/07 10:56:53;;;;;;;7.80;5.63;;;;;;;18.19;76.66;102261.66;5253256;28;20040;-74
2022/07/07 10:59:25;;;;;;;3.60;2.17;;;;;;;17.93;82.94;102264.91;5261933;28;20029;-74
2022/07/07 11:02:02;;;;;;;3.63;2.80;;;;;;;17.66;82.38;102267.53;5262725;28;20078;-75
2022/07/07 11:04:46;;;;;;;4.70;2.03;;;;;;;17.50;81.75;102272.53;5262132;28;20090;-74
2022/07/07 11:07:23;;;;;;;2.35;1.90;;;;;;;17.67;81.71;102277.63;5259805;28;20045;-72
2022/07/07 11:10:03;;;;;;;4.72;1.75;;;;;;;17.68;81.57;102268.91;5262476;28;20334;-71
2022/07/07 11:12:52;;;;;;;3.28;1.45;;;;;;;17.64;81.23;102273.47;5261215;28;20021;-74
2022/07/07 11:15:25;;;;;;;6.05;5.32;;;;;;;17.88;81.47;102283.78;5249749;28;20024;-73
2022/07/07 11:17:56;;;;;;;4.40;2.40;;;;;;;17.99;80.74;102283.31;5241294;28;20354;-74
2022/07/07 11:20:29;;;;;;;7.40;4.73;;;;;;;18.11;80.59;102285.66;5247083;28;20036;-72
2022/07/07 11:23:05;;;;;;;5.28;3.15;;;;;;;18.07;80.40;102280.94;5241121;28;20343;-73
2022/07/07 11:25:38;;;;;;;7.15;4.35;;;;;;;18.13;80.19;102291.81;5241238;28;20039;-73
2022/07/07 11:28:10;;;;;;;4.47;1.95;;;;;;;17.95;80.24;102289.84;5241127;28;20083;-73
2022/07/07 11:30:41;;;;;;;6.43;2.60;;;;;;;18.00;83.98;102299.03;5243353;28;20033;-72
2022/07/07 11:33:12;;;;;;;6.25;2.60;;;;;;;17.84;84.59;102300.38;5261305;28;20013;-72
2022/07/07 11:35:44;;;;;;;5.95;2.50;;;;;;;17.87;86.41;102302.59;5262091;28;20022;-73
2022/07/07 11:38:15;;;;;;;5.72;3.05;;;;;;;17.86;85.66;102306.53;5262377;28;20068;-74
2022/07/07 11:40:46;;;;;;;6.78;2.85;;;;;;;17.88;86.45;102317.47;5260326;28;20037;-73
2022/07/07 11:43:25;;;;;;;4.57;2.80;;;;;;;17.89;84.50;102307.91;5261848;28;20111;-73
2022/07/07 11:45:56;;;;;;;37.92;33.97;;;;;;;17.92;84.84;102315.69;5260484;28;20120;-73
2022/07/07 11:48:39;;;;;;;10.25;7.25;;;;;;;18.01;84.18;102311.09;5245631;28;20045;-73
2022/07/07 11:51:10;;;;;;;6.60;3.85;;;;;;;18.04;82.91;102316.09;5241064;28;20026;-73
2022/07/07 11:53:41;;;;;;;6.43;2.95;;;;;;;18.02;81.48;102313.59;5250142;28;20059;-73
2022/07/07 11:56:27;;;;;;;5.90;2.00;;;;;;;18.02;80.73;102319.22;5244849;28;20033;-72
2022/07/07 11:58:59;;;;;;;;;;;;;;;18.15;81.64;102323.22;5241282;28;20061;-73
2022/07/07 12:01:36;;;;;;;4.32;1.90;;;;;;;18.14;81.42;102321.53;5240040;28;19917;-73
2022/07/07 12:04:20;;;;;;;3.55;2.13;;;;;;;17.92;81.38;102324.97;5241938;28;20453;-73
2022/07/07 12:06:52;;;;;;;3.22;1.75;;;;;;;17.80;81.91;102328.22;5261560;28;20025;-73
2022/07/07 12:09:23;;;;;;;6.40;2.33;;;;;;;17.84;82.67;102327.63;5260701;28;20482;-73
2022/07/07 12:11:54;;;;;;;8.27;2.10;;;;;;;17.96;82.82;102339.22;5261193;28;20063;-73
2022/07/07 12:14:27;;;;;;;40.83;31.90;;;;;;;18.16;82.42;102330.50;5261109;28;20025;-73
2022/07/07 12:16:58;;;;;;;6.53;2.10;;;;;;;18.10;80.80;102330.88;5260991;28;20026;-73
2022/07/07 12:19:29;;;;;;;5.50;1.88;;;;;;;18.26;80.64;102329.50;5261653;28;20123;-73
2022/07/07 12:22:00;;;;;;;5.00;1.48;;;;;;;18.27;77.74;102324.72;5255378;28;20029;-72
2022/07/07 12:24:34;;;;;;;2.92;1.50;;;;;;;18.46;76.21;102328.31;5243491;28;20033;-73
2022/07/07 12:27:15;;;;;;;7.13;2.05;;;;;;;18.61;74.93;102325.25;5246705;28;20587;-74
2022/07/07 12:30:03;;;;;;;5.53;2.90;;;;;;;18.74;73.28;102337.66;5240324;28;20423;-73
2022/07/07 12:32:35;;;;;;;7.30;2.50;;;;;;;18.86;72.29;102325.91;5247877;28;20116;-72
2022/07/07 12:35:06;;;;;;;4.50;1.60;;;;;;;18.82;70.80;102330.53;5277674;28;20108;-72
2022/07/07 12:37:42;;;;;;;4.85;1.73;;;;;;;18.91;71.27;102334.25;5276705;28;20036;-72
2022/07/07 12:40:13;;;;;;;14.65;10.85;;;;;;;19.01;71.76;102333.22;5254378;28;20071;-72
2022/07/07 12:42:45;;;;;;;23.85;19.30;;;;;;;19.07;70.28;102338.47;5248147;28;20017;-73
2022/07/07 12:45:18;;;;;;;6.22;2.58;;;;;;;19.15;69.22;102347.28;5263633;28;20021;-72
2022/07/07 12:47:52;;;;;;;3.65;1.80;;;;;;;19.07;67.96;102343.22;5253980;28;20025;-73
2022/07/07 12:50:25;;;;;;;10.05;6.70;;;;;;;19.36;68.03;102345.75;5257499;28;20419;-73
2022/07/07 12:53:02;;;;;;;4.30;1.50;;;;;;;19.40;67.12;102354.38;5253683;28;20054;-69
2022/07/07 12:55:41;;;;;;;2.45;1.63;;;;;;;19.50;67.24;102343.72;5246724;28;20032;-72
2022/07/07 12:58:12;;;;;;;1.70;1.20;;;;;;;19.62;67.20;102348.00;5263213;28;20053;-69
2022/07/07 13:01:02;;;;;;;6.67;1.43;;;;;;;19.82;67.51;102358.84;5264985;28;20040;-78
2022/07/07 13:03:34;;;;;;;2.15;1.20;;;;;;;19.62;67.76;102360.09;5243991;28;20322;-71
2022/07/07 13:06:05;;;;;;;3.65;1.70;;;;;;;19.78;67.15;102357.78;5243853;28;20485;-74
2022/07/07 13:08:36;;;;;;;4.97;1.85;;;;;;;20.17;66.88;102347.88;5247519;28;20071;-73
2022/07/07 13:11:08;;;;;;;2.38;1.13;;;;;;;20.30;65.31;102363.06;5251840;28;20504;-73
2022/07/07 13:13:40;;;;;;;1.58;1.00;;;;;;;20.08;65.18;102366.69;5257219;28;20025;-73
2022/07/07 13:16:11;;;;;;;6.55;5.07;;;;;;;20.04;65.07;102371.28;5284071;28;20470;-72
2022/07/07 13:18:43;;;;;;;3.17;1.73;;;;;;;20.03;65.80;102381.72;5265193;28;20033;-73
2022/07/07 13:21:14;;;;;;;2.10;1.58;;;;;;;20.16;65.41;102374.38;5264697;28;20029;-74
2022/07/07 13:23:45;;;;;;;3.67;1.52;;;;;;;19.75;66.78;102393.03;5262045;28;20041;-73
2022/07/07 13:26:17;;;;;;;7.97;1.98;;;;;;;19.59;68.38;102402.94;5252041;28;20078;-70
2022/07/07 13:28:49;;;;;;;4.80;1.80;;;;;;;19.57;67.70;102401.59;5246225;28;20485;-70
2022/07/07 13:31:20;;;;;;;4.32;1.70;;;;;;;19.61;65.00;102396.97;5259242;28;20104;-69
2022/07/07 13:33:52;;;;;;;12.13;2.00;;;;;;;19.81;62.76;102402.19;5263279;28;20109;-75
2022/07/07 13:36:23;;;;;;;5.90;1.80;;;;;;;19.81;62.14;102402.19;5262590;28;20017;-71
2022/07/07 13:38:54;;;;;;;11.00;2.63;;;;;;;20.10;61.91;102404.66;5264197;28;20033;-72
2022/07/07 13:41:25;;;;;;;9.35;2.03;;;;;;;20.22;60.50;102415.34;5263671;28;20028;-72
2022/07/07 13:43:58;;;;;;;9.20;2.30;;;;;;;20.32;60.12;102423.56;5263942;28;20074;-73
2022/07/07 13:46:30;;;;;;;5.68;2.22;;;;;;;20.26;59.93;102419.22;5261733;28;20448;-72
2022/07/07 13:49:01;;;;;;;7.35;2.47;;;;;;;20.08;60.75;102414.56;5242609;28;20053;-72
2022/07/07 13:51:32;;;;;;;20.75;15.13;;;;;;;19.85;61.08;102427.75;5243297;28;20025;-72
2022/07/07 13:54:04;;;;;;;6.07;2.50;;;;;;;19.81;61.19;102433.16;5254175;28;20029;-72
2022/07/07 13:56:35;;;;;;;9.88;3.10;;;;;;;19.89;62.54;102434.41;5263883;28;20029;-72
2022/07/07 13:59:06;;;;;;;6.25;2.53;;;;;;;20.11;61.71;102425.19;5263541;28;20138;-73
2022/07/07 14:01:38;;;;;;;6.70;2.88;;;;;;;19.87;61.39;102437.56;5262388;28;20035;-72
2022/07/07 14:04:10;;;;;;;6.60;2.42;;;;;;;20.22;60.27;102435.06;5255462;28;20047;-72
2022/07/07 14:06:41;;;;;;;6.22;2.47;;;;;;;20.41;57.38;102438.56;5244852;28;20025;-72
2022/07/07 14:09:12;;;;;;;7.90;1.77;;;;;;;20.58;56.42;102442.69;5260955;28;20366;-73
2022/07/07 14:11:43;;;;;;;4.18;1.90;;;;;;;20.71;55.08;102441.84;5256409;28;20464;-73
2022/07/07 14:14:15;;;;;;;4.57;1.98;;;;;;;21.23;54.71;102435.69;5283478;28;20052;-73
2022/07/07 14:16:46;;;;;;;6.75;1.88;;;;;;;21.24;54.18;102446.66;5256908;28;20127;-73
2022/07/07 14:19:20;;;;;;;6.60;2.28;;;;;;;20.98;54.46;102445.66;5246271;28;20034;-73
2022/07/07 14:21:51;;;;;;;6.38;3.08;;;;;;;20.89;54.71;102448.44;5250403;28;20469;-73
2022/07/07 14:24:23;;;;;;;8.10;2.22;;;;;;;20.77;54.26;102443.34;5253506;28;20027;-73
2022/07/07 14:26:54;;;;;;;5.93;2.28;;;;;;;21.00;54.46;102443.34;5283955;28;20183;-73
2022/07/07 14:29:25;;;;;;;7.55;2.40;;;;;;;20.83;52.59;102444.88;5281889;28;20052;-73
2022/07/07 14:31:57;;;;;;;7.03;2.30;;;;;;;20.63;52.51;102451.03;5253071;28;20064;-73
2022/07/07 14:34:29;;;;;;;11.77;3.65;;;;;;;20.60;52.46;102446.88;5283449;28;20508;-74
2022/07/07 14:37:00;;;;;;;11.40;2.95;;;;;;;20.50;53.33;102460.34;5268134;28;20385;-72
2022/07/07 14:39:31;;;;;;;11.32;3.28;;;;;;;20.37;54.33;102456.41;5249515;28;20551;-71
2022/07/07 14:42:03;;;;;;;12.55;3.65;;;;;;;20.26;54.98;102458.66;5284286;28;20036;-71
2022/07/07 14:44:34;;;;;;;9.60;3.35;;;;;;;20.38;53.16;102464.56;5255047;28;20033;-70
2022/07/07 14:47:05;;;;;;;10.45;2.70;;;;;;;20.61;53.25;102470.28;5258185;28;20024;-73
2022/07/07 14:49:37;;;;;;;10.43;3.60;;;;;;;20.41;52.98;102463.94;5283632;28;20021;-72
2022/07/07 14:52:09;;;;;;;12.32;3.20;;;;;;;20.46;52.78;102467.78;5252849;28;20065;-73
2022/07/07 14:54:41;;;;;;;13.35;5.68;;;;;;;20.40;51.82;102481.13;5247524;28;20026;-71
2022/07/07 14:57:12;;;;;;;11.38;3.53;;;;;;;20.20;51.96;102476.81;5244080;28;20171;-71
2022/07/07 14:59:43;;;;;;;8.70;3.30;;;;;;;20.15;51.31;102483.41;5270427;28;20067;-72
2022/07/07 15:02:14;;;;;;;7.40;2.40;;;;;;;20.13;51.93;102474.44;5268341;28;20074;-70
2022/07/07 15:04:46;;;;;;;9.10;2.60;;;;;;;20.06;52.45;102476.00;5255874;28;20033;-70
2022/07/07 15:07:17;;;;;;;6.63;2.53;;;;;;;20.20;51.71;102483.28;5250072;28;20124;-71
2022/07/07 15:09:48;;;;;;;7.18;2.40;;;;;;;19.94;50.53;102485.84;5249477;28;20028;-72
2022/07/07 15:12:20;;;;;;;6.80;2.47;;;;;;;19.95;50.76;102481.84;5254670;28;20515;-72
2022/07/07 15:14:51;;;;;;;10.77;3.38;;;;;;;19.86;51.66;102485.72;5268783;28;20116;-73
2022/07/07 15:17:23;;;;;;;6.93;2.10;;;;;;;19.91;51.39;102485.59;5276561;28;20085;-72
2022/07/07 15:19:55;;;;;;;8.70;3.13;;;;;;;20.07;50.69;102491.75;5245846;28;20025;-71
2022/07/07 15:22:26;;;;;;;8.15;2.50;;;;;;;20.29;51.32;102503.09;5259480;28;20163;-71
2022/07/07 15:24:57;;;;;;;11.73;3.25;;;;;;;20.30;49.70;102487.88;5255916;28;20111;-72
2022/07/07 15:27:29;;;;;;;10.40;2.72;;;;;;;20.03;50.35;102504.81;5245902;28;20028;-72
2022/07/07 15:30:00;;;;;;;7.95;2.10;;;;;;;19.89;51.29;102500.00;5251897;28;20017;-73
2022/07/07 15:32:31;;;;;;;8.80;2.50;;;;;;;19.88;51.29;102509.59;5259298;28;20017;-74
2022/07/07 15:35:03;;;;;;;6.90;3.10;;;;;;;19.79;50.40;102514.31;5253995;28;20032;-73
2022/07/07 15:37:34;;;;;;;9.13;2.50;;;;;;;19.88;50.34;102523.66;5262039;28;20032;-70
2022/07/07 15:40:07;;;;;;;31.92;21.67;;;;;;;19.97;50.45;102526.59;5261282;28;20024;-71
2022/07/07 15:42:39;;;;;;;12.68;8.45;;;;;;;20.06;50.09;102524.72;5247060;28;20106;-71
2022/07/07 15:45:10;;;;;;;7.68;3.42;;;;;;;19.90;49.60;102529.81;5250936;28;20472;-70
2022/07/07 15:47:41;;;;;;;9.55;2.75;;;;;;;19.87;49.34;102524.00;5246715;28;20024;-74
2022/07/07 15:50:13;;;;;;;7.78;2.17;;;;;;;19.79;49.95;102524.69;5240771;28;20049;-71
2022/07/07 15:52:44;;;;;;;9.57;2.20;;;;;;;19.71;50.17;102540.34;5241953;28;20044;-71
2022/07/07 15:55:15;;;;;;;7.90;2.78;;;;;;;19.86;49.61;102537.22;5260796;28;20047;-71
2022/07/07 15:57:46;;;;;;;9.15;2.92;;;;;;;19.68;49.43;102532.53;5253551;28;20132;-73
2022/07/07 16:00:18;;;;;;;6.75;2.38;;;;;;;19.85;49.44;102534.72;5251571;28;20037;-70
2022/07/07 16:02:49;;;;;;;6.47;2.63;;;;;;;19.84;49.41;102539.53;5248268;28;20513;-70
2022/07/07 16:05:21;;;;;;;6.32;1.77;;;;;;;19.80;50.13;102541.28;5254294;28;20017;-70
2022/07/07 16:07:52;;;;;;;7.50;2.78;;;;;;;19.77;50.71;102536.28;5253280;28;20484;-69
2022/07/07 16:10:23;;;;;;;10.02;2.53;;;;;;;19.55;50.77;102536.94;5260994;28;20025;-70
2022/07/07 16:12:55;;;;;;;8.55;3.25;;;;;;;19.78;51.13;102535.13;5240758;28;20060;-70
2022/07/07 16:15:26;;;;;;;11.25;2.65;;;;;;;19.83;51.56;102546.28;5242009;28;20530;-71
2022/07/07 16:17:57;;;;;;;7.30;2.78;;;;;;;19.92;51.66;102544.44;5261664;28;20044;-71
2022/07/07 16:20:29;;;;;;;8.40;2.55;;;;;;;19.89;51.82;102545.06;5257844;28;20361;-71
2022/07/07 16:23:00;;;;;;;11.82;3.20;;;;;;;19.94;51.03;102558.19;5260985;28;20022;-71
2022/07/07 16:25:32;;;;;;;15.60;3.38;;;;;;;19.96;51.93;102555.91;5245222;28;20021;-70
2022/07/07 16:28:03;;;;;;;7.35;2.53;;;;;;;20.29;51.76;102558.59;5245261;28;20036;-69
2022/07/07 16:30:34;;;;;;;10.98;3.95;;;;;;;20.41;51.28;102556.09;5243948;28;20076;-69
2022/07/07 16:33:07;;;;;;;7.70;2.92;;;;;;;20.29;51.75;102559.44;5244976;28;20026;-70
2022/07/07 16:35:38;;;;;;;8.90;3.10;;;;;;;20.29;52.05;102559.44;5244429;28;20496;-71
2022/07/07 16:38:10;;;;;;;12.73;2.97;;;;;;;20.33;51.87;102560.47;5259413;28;20025;-70
2022/07/07 16:40:41;;;;;;;9.05;2.60;;;;;;;20.42;52.37;102564.19;5265104;28;20044;-70
2022/07/07 16:43:13;;;;;;;17.58;7.28;;;;;;;20.56;51.78;102566.22;5263630;28;20472;-72
2022/07/07 16:45:44;;;;;;;6.97;2.42;;;;;;;20.55;51.44;102562.53;5258748;28;20523;-72
2022/07/07 16:48:15;;;;;;;10.15;3.50;;;;;;;20.33;52.33;102577.38;5244573;28;20038;-71
2022/07/07 16:50:47;;;;;;;12.10;3.95;;;;;;;20.02;52.87;102576.31;5244063;28;20036;-72
2022/07/07 16:53:20;;;;;;;7.88;2.58;;;;;;;19.65;54.06;102583.78;5250664;28;20021;-71
2022/07/07 16:55:54;;;;;;;7.25;2.30;;;;;;;19.75;54.50;102580.81;5262998;28;20140;-71
2022/07/07 16:58:25;;;;;;;8.50;2.80;;;;;;;19.80;54.40;102586.34;5252051;28;20140;-72
2022/07/07 17:00:57;;;;;;;8.45;3.17;;;;;;;19.66;54.91;102579.81;5244514;28;20179;-71
2022/07/07 17:03:28;;;;;;;11.10;3.22;;;;;;;19.42;55.33;102583.59;5260260;28;20389;-71
2022/07/07 17:06:00;;;;;;;10.50;2.75;;;;;;;19.76;54.42;102583.31;5258949;28;20068;-70
2022/07/07 17:08:32;;;;;;;13.02;6.15;;;;;;;19.78;54.30;102588.63;5253571;28;20488;-70
2022/07/07 17:11:04;;;;;;;7.65;3.00;;;;;;;19.72;54.21;102589.88;5254861;28;20086;-70
2022/07/07 17:13:35;;;;;;;9.57;3.00;;;;;;;19.73;54.61;102583.09;5249289;28;20021;-70
2022/07/07 17:16:09;;;;;;;9.85;3.22;;;;;;;19.69;54.83;102596.13;5246609;28;20025;-71
2022/07/07 17:18:40;;;;;;;12.57;3.78;;;;;;;19.86;54.14;102579.44;5263946;28;20032;-70
2022/07/07 17:21:12;;;;;;;8.00;4.28;;;;;;;20.20;53.10;102581.88;5264667;28;20494;-71
2022/07/07 17:23:46;;;;;;;10.70;3.05;;;;;;;20.40;52.49;102583.44;5263242;28;20500;-71
2022/07/07 17:26:18;;;;;;;9.73;2.67;;;;;;;20.25;52.29;102592.22;5243279;28;20053;-72
2022/07/07 17:28:49;;;;;;;10.93;2.80;;;;;;;20.32;51.77;102586.97;5248640;28;20100;-71
